createdAt,value
2018-09-20T00:09:38.717Z,20.10
2018-09-20T00:12:54.299Z,20.10
2018-09-20T00:15:27.215Z,20.10
2018-09-20T00:26:36.002Z,19.90
2018-09-20T00:32:08.109Z,19.90
2018-09-20T00:34:45.598Z,19.90
2018-09-20T00:37:23.455Z,19.80
2018-09-20T00:40:01.403Z,19.70
2018-09-20T01:39:15.519Z,19.60
2018-09-20T02:42:05.522Z,18.70
2018-09-20T04:32:08.283Z,18.00
2018-09-20T04:34:36.853Z,18.00
2018-09-20T04:37:06.128Z,17.90
2018-09-20T04:39:39.220Z,17.90
2018-09-20T04:42:16.400Z,17.90
2018-09-20T04:51:09.524Z,17.90
2018-09-20T05:47:40.011Z,17.90
2018-09-20T05:50:08.868Z,18.20
2018-09-20T05:52:39.969Z,18.30
2018-09-20T05:55:08.480Z,18.30
2018-09-20T05:57:37.495Z,18.40
2018-09-20T06:00:06.437Z,18.40
2018-09-20T06:02:35.371Z,18.50
2018-09-20T06:05:04.090Z,18.50
2018-09-20T06:07:34.009Z,18.60
2018-09-20T06:10:03.055Z,18.60
2018-09-20T06:12:31.553Z,18.70
2018-09-20T06:15:01.306Z,18.70
2018-09-20T06:17:29.794Z,18.80
2018-09-20T06:19:58.649Z,18.80
2018-09-20T06:22:27.502Z,18.90
2018-09-20T06:24:57.582Z,19.00
2018-09-20T06:27:27.282Z,19.10
2018-09-20T06:33:10.340Z,19.30
2018-09-20T06:35:39.471Z,19.30
2018-09-20T06:38:08.981Z,19.50
2018-09-20T06:40:41.225Z,19.60
2018-09-20T06:43:10.159Z,19.70
2018-09-20T06:45:40.598Z,19.80
2018-09-20T06:48:10.459Z,19.90
2018-09-20T06:50:42.198Z,20.10
2018-09-20T06:53:14.584Z,20.10
2018-09-20T06:55:44.045Z,20.30
2018-09-20T06:58:12.768Z,20.50
2018-09-20T07:00:41.697Z,20.60
2018-09-20T07:03:10.389Z,20.70
2018-09-20T07:05:41.214Z,20.80
2018-09-20T07:08:10.585Z,20.90
2018-09-20T07:10:43.117Z,21.00
2018-09-20T07:13:11.838Z,21.10
2018-09-20T07:15:41.026Z,21.30
2018-09-20T07:18:27.171Z,21.40
2018-09-20T07:23:55.727Z,21.60
2018-09-20T07:26:43.737Z,21.70
2018-09-20T07:29:13.034Z,21.80
2018-09-20T07:31:50.731Z,21.90
2018-09-20T07:34:21.385Z,22.10
2018-09-20T07:36:52.455Z,22.20
2018-09-20T07:39:24.640Z,22.30
2018-09-20T07:41:56.605Z,22.40
2018-09-20T07:44:26.874Z,22.60
2018-09-20T07:46:57.717Z,22.70
2018-09-20T07:49:28.811Z,22.80
2018-09-20T07:51:58.826Z,22.90
2018-09-20T07:54:27.792Z,23.00
2018-09-20T07:56:59.117Z,23.10
2018-09-20T07:59:32.871Z,23.20
2018-09-20T08:02:45.259Z,23.30
2018-09-20T08:05:25.457Z,23.50
2018-09-20T08:08:00.021Z,23.60
2018-09-20T08:10:30.177Z,23.80
2018-09-20T08:13:00.288Z,24.00
2018-09-20T08:15:45.169Z,24.10
2018-09-20T08:18:16.066Z,24.20
2018-09-20T08:21:00.104Z,24.40
2018-09-20T08:23:39.960Z,24.60
2018-09-20T08:26:12.683Z,24.80
2018-09-20T08:28:43.148Z,25.00
2018-09-20T08:31:18.298Z,25.10
2018-09-20T08:33:50.080Z,25.30
2018-09-20T08:36:20.689Z,25.60
2018-09-20T08:38:53.011Z,25.70
2018-09-20T08:41:22.038Z,26.00
2018-09-20T08:43:53.786Z,26.20
2018-09-20T08:46:22.451Z,26.40
2018-09-20T08:48:59.790Z,26.60
2018-09-20T08:51:31.578Z,26.80
2018-09-20T08:54:01.522Z,26.90
2018-09-20T08:56:33.230Z,27.10
2018-09-20T08:59:03.527Z,27.30
2018-09-20T09:01:34.748Z,27.40
2018-09-20T09:04:03.429Z,27.50
2018-09-20T09:06:36.720Z,27.70
2018-09-20T09:09:14.693Z,27.90
2018-09-20T09:11:44.252Z,28.00
2018-09-20T09:14:17.693Z,28.30
2018-09-20T09:16:49.430Z,28.60
2018-09-20T09:19:23.821Z,28.80
2018-09-20T09:21:56.024Z,28.90
2018-09-20T09:24:25.958Z,29.00
2018-09-20T09:27:00.689Z,29.00
2018-09-20T09:29:40.536Z,28.90
2018-09-20T09:32:14.581Z,28.80
2018-09-20T09:34:45.005Z,28.90
2018-09-20T09:37:21.416Z,29.20
2018-09-20T09:39:52.881Z,29.50
2018-09-20T09:42:23.067Z,29.70
2018-09-20T09:44:53.355Z,29.90
2018-09-20T09:47:35.326Z,30.00
2018-09-20T09:50:09.340Z,30.20
2018-09-20T09:52:41.566Z,30.40
2018-09-20T09:55:13.993Z,30.60
2018-09-20T09:57:43.547Z,30.60
2018-09-20T10:00:24.469Z,30.80
2018-09-20T10:03:02.822Z,30.90
2018-09-20T10:05:36.273Z,31.10
2018-09-20T10:08:06.121Z,31.00
2018-09-20T10:10:36.827Z,30.90
2018-09-20T10:13:08.192Z,31.00
2018-09-20T10:15:43.710Z,31.00
2018-09-20T10:18:13.434Z,31.10
2018-09-20T10:20:45.650Z,31.30
2018-09-20T10:23:17.085Z,31.50
2018-09-20T10:25:54.096Z,31.80
2018-09-20T10:28:22.759Z,32.00
2018-09-20T10:30:52.409Z,32.10
2018-09-20T10:33:22.241Z,32.10
2018-09-20T10:40:08.958Z,32.10
2018-09-20T10:42:45.005Z,32.10
2018-09-20T10:45:14.974Z,32.10
2018-09-20T10:47:43.741Z,32.20
2018-09-20T10:50:12.210Z,32.30
2018-09-20T10:52:42.180Z,32.40
2018-09-20T10:55:11.749Z,32.50
2018-09-20T10:57:40.515Z,32.60
2018-09-20T11:00:12.093Z,32.70
2018-09-20T11:02:52.370Z,32.80
2018-09-20T11:05:28.060Z,32.80
2018-09-20T11:07:56.740Z,32.70
2018-09-20T11:10:25.264Z,32.50
2018-09-20T11:12:55.007Z,32.50
2018-09-20T11:15:23.760Z,32.50
2018-09-20T11:17:52.806Z,32.10
2018-09-20T11:20:21.742Z,31.90
2018-09-20T11:22:50.765Z,31.90
2018-09-20T11:25:19.613Z,32.10
2018-09-20T11:27:49.933Z,32.20
2018-09-20T11:30:18.942Z,32.40
2018-09-20T11:32:51.760Z,32.50
2018-09-20T11:35:20.191Z,32.40
2018-09-20T11:37:50.720Z,32.30
2018-09-20T11:40:19.752Z,32.40
2018-09-20T11:42:48.806Z,32.50
2018-09-20T11:45:18.044Z,32.40
2018-09-20T11:47:48.098Z,32.20
2018-09-20T11:50:17.153Z,31.90
2018-09-20T11:52:46.622Z,32.00
2018-09-20T11:55:16.178Z,32.30
2018-09-20T11:57:44.611Z,32.50
2018-09-20T12:00:13.358Z,32.80
2018-09-20T12:02:43.502Z,33.00
2018-09-20T12:05:12.122Z,32.80
2018-09-20T12:07:40.391Z,33.00
2018-09-20T12:10:09.041Z,33.20
2018-09-20T12:12:37.929Z,33.40
2018-09-20T12:15:06.303Z,33.60
2018-09-20T12:17:34.629Z,33.80
2018-09-20T12:20:02.991Z,33.90
2018-09-20T12:22:31.550Z,34.00
2018-09-20T12:25:00.475Z,33.80
2018-09-20T12:27:29.398Z,33.80
2018-09-20T12:29:58.168Z,33.80
2018-09-20T12:32:26.568Z,33.60
2018-09-20T12:34:55.731Z,33.70
2018-09-20T12:37:30.529Z,33.60
2018-09-20T12:39:59.515Z,33.40
2018-09-20T12:42:28.823Z,33.30
2018-09-20T12:44:58.190Z,33.10
2018-09-20T12:47:26.527Z,33.00
2018-09-20T12:49:55.575Z,32.90
2018-09-20T12:52:24.017Z,32.80
2018-09-20T12:54:52.473Z,32.70
2018-09-20T12:57:20.810Z,32.50
2018-09-20T12:59:49.484Z,32.30
2018-09-20T13:02:18.473Z,32.20
2018-09-20T13:04:47.101Z,32.00
2018-09-20T13:07:16.133Z,31.90
2018-09-20T13:09:44.885Z,31.90
2018-09-20T13:12:16.065Z,32.00
2018-09-20T13:14:45.615Z,32.00
2018-09-20T13:17:14.361Z,32.10
2018-09-20T13:19:43.404Z,32.10
2018-09-20T13:22:12.838Z,32.20
2018-09-20T13:24:41.548Z,32.50
2018-09-20T13:27:10.817Z,32.70
2018-09-20T13:29:39.334Z,32.90
2018-09-20T13:32:08.739Z,33.10
2018-09-20T13:34:37.117Z,33.20
2018-09-20T13:37:05.925Z,33.30
2018-09-20T13:39:35.016Z,33.50
2018-09-20T13:42:04.174Z,33.60
2018-09-20T13:44:32.789Z,33.70
2018-09-20T13:47:01.128Z,33.70
2018-09-20T13:49:29.872Z,33.90
2018-09-20T13:51:58.362Z,34.00
2018-09-20T13:54:27.088Z,34.00
2018-09-20T13:56:55.576Z,34.00
2018-09-20T13:59:25.122Z,33.90
2018-09-20T14:01:54.537Z,34.00
2018-09-20T14:04:22.990Z,33.90
2018-09-20T14:06:52.444Z,33.70
2018-09-20T14:09:21.937Z,33.60
2018-09-20T14:11:51.623Z,33.60
2018-09-20T14:14:20.029Z,33.50
2018-09-20T14:16:48.515Z,33.30
2018-09-20T14:19:17.163Z,33.40
2018-09-20T14:21:45.903Z,33.50
2018-09-20T14:24:16.226Z,33.50
2018-09-20T14:26:44.578Z,33.50
2018-09-20T14:29:12.951Z,33.50
2018-09-20T14:31:41.284Z,33.50
2018-09-20T14:34:09.634Z,33.60
2018-09-20T14:36:37.985Z,33.70
2018-09-20T14:39:08.639Z,33.80
2018-09-20T14:41:37.413Z,33.90
2018-09-20T14:44:06.224Z,33.80
2018-09-20T14:46:35.582Z,33.70
2018-09-20T14:49:04.683Z,33.50
2018-09-20T14:51:33.116Z,33.30
2018-09-20T14:54:01.878Z,33.20
2018-09-20T14:56:31.028Z,33.30
2018-09-20T14:58:59.362Z,33.30
2018-09-20T15:01:28.018Z,33.40
2018-09-20T15:03:57.657Z,33.40
2018-09-20T15:06:27.446Z,33.30
2018-09-20T15:08:55.796Z,33.30
2018-09-20T15:11:24.234Z,33.40
2018-09-20T15:13:52.628Z,33.40
2018-09-20T15:16:22.069Z,33.50
2018-09-20T15:18:51.304Z,33.60
2018-09-20T15:21:19.632Z,33.70
2018-09-20T15:23:48.431Z,33.80
2018-09-20T15:26:17.060Z,33.80
2018-09-20T15:28:51.305Z,33.80
2018-09-20T15:31:19.586Z,33.80
2018-09-20T15:33:48.586Z,34.00
2018-09-20T15:36:16.829Z,34.30
2018-09-20T15:38:45.528Z,34.70
2018-09-20T15:41:14.850Z,35.10
2018-09-20T15:43:45.299Z,35.00
2018-09-20T15:46:14.686Z,35.00
2018-09-20T15:48:43.411Z,34.80
2018-09-20T15:51:11.714Z,34.60
2018-09-20T15:53:39.991Z,34.40
2018-09-20T15:56:10.387Z,34.60
2018-09-20T15:58:39.966Z,34.30
2018-09-20T16:01:10.224Z,33.80
2018-09-20T16:03:38.896Z,33.60
2018-09-20T16:06:08.110Z,33.30
2018-09-20T16:08:37.379Z,33.20
2018-09-20T16:11:13.305Z,33.00
2018-09-20T16:13:41.599Z,32.70
2018-09-20T16:29:57.227Z,32.20
2018-09-20T16:32:33.621Z,31.20
2018-09-20T16:35:17.773Z,31.10
2018-09-20T16:39:58.371Z,30.90
2018-09-20T16:42:29.096Z,30.70
2018-09-20T16:44:57.438Z,30.50
2018-09-20T16:47:25.745Z,30.40
2018-09-20T16:49:53.988Z,30.20
2018-09-20T16:52:22.885Z,30.20
2018-09-20T16:54:51.789Z,30.10
2018-09-20T16:57:20.340Z,29.90
2018-09-20T16:59:49.092Z,29.80
2018-09-20T17:02:17.670Z,29.70
2018-09-20T17:04:45.959Z,29.60
2018-09-20T17:07:15.424Z,29.50
2018-09-20T17:09:44.157Z,29.30
2018-09-20T17:12:12.737Z,29.20
2018-09-20T17:14:43.098Z,29.00
2018-09-20T17:17:12.680Z,28.90
2018-09-20T17:19:41.152Z,28.80
2018-09-20T17:22:10.032Z,28.70
2018-09-20T17:24:39.194Z,28.50
2018-09-20T17:27:07.519Z,28.40
2018-09-20T17:29:36.743Z,28.20
2018-09-20T17:33:29.841Z,28.10
2018-09-20T17:35:58.170Z,28.00
2018-09-20T17:38:26.854Z,27.80
2018-09-20T17:40:59.000Z,27.70
2018-09-20T17:43:33.226Z,27.60
2018-09-20T17:46:03.477Z,27.50
2018-09-20T17:48:32.585Z,27.40
2018-09-20T17:53:36.060Z,27.20
2018-09-20T17:56:04.861Z,27.10
2018-09-20T17:58:33.461Z,27.10
2018-09-20T18:01:02.366Z,27.00
2018-09-20T18:03:32.963Z,26.90
2018-09-20T18:06:01.201Z,26.70
2018-09-20T18:08:37.905Z,26.70
2018-09-20T18:11:06.374Z,26.60
2018-09-20T18:13:35.512Z,26.50
2018-09-20T18:16:09.253Z,26.40
2018-09-20T18:18:44.227Z,26.40
2018-09-20T18:21:12.591Z,26.40
2018-09-20T18:23:41.696Z,26.40
2018-09-20T18:26:12.481Z,26.30
2018-09-20T18:28:40.769Z,26.30
2018-09-20T18:31:10.095Z,26.20
2018-09-20T18:33:51.360Z,26.20
2018-09-20T18:39:19.640Z,26.10
2018-09-20T18:41:48.482Z,25.90
2018-09-20T18:44:19.902Z,25.90
2018-09-20T18:46:49.524Z,25.80
2018-09-20T18:49:18.119Z,25.80
2018-09-20T18:51:47.481Z,25.60
2018-09-20T18:54:15.750Z,25.60
2018-09-20T18:56:44.182Z,25.50
2018-09-20T18:59:12.783Z,25.50
2018-09-20T19:01:41.038Z,25.50
2018-09-20T19:04:09.965Z,25.40
2018-09-20T19:06:38.218Z,25.30
2018-09-20T19:09:08.678Z,25.20
2018-09-20T19:11:37.231Z,25.20
2018-09-20T19:14:05.611Z,25.10
2018-09-20T19:16:34.278Z,25.10
2018-09-20T19:19:03.710Z,25.00
2018-09-20T19:21:32.079Z,25.00
2018-09-20T19:24:00.326Z,25.00
2018-09-20T19:26:29.246Z,24.90
2018-09-20T19:28:57.549Z,24.80
2018-09-20T19:31:25.830Z,24.80
2018-09-20T19:33:54.472Z,24.80
2018-09-20T19:36:23.062Z,24.70
2018-09-20T19:38:51.707Z,24.70
2018-09-20T19:41:20.482Z,24.70
2018-09-20T19:43:48.739Z,24.60
2018-09-20T19:46:17.008Z,24.60
2018-09-20T19:48:46.207Z,24.50
2018-09-20T19:51:14.802Z,24.50
2018-09-20T19:53:43.052Z,24.40
2018-09-20T19:56:11.325Z,24.40
2018-09-20T19:58:39.920Z,24.30
2018-09-20T20:01:08.614Z,24.30
2018-09-20T20:03:36.887Z,24.30
2018-09-20T20:06:05.489Z,24.30
2018-09-20T20:08:33.705Z,24.20
2018-09-20T20:11:02.110Z,24.20
2018-09-20T20:13:36.525Z,24.20
2018-09-20T20:16:05.777Z,24.10
2018-09-20T20:18:34.016Z,24.10
2018-09-20T20:21:02.377Z,24.10
2018-09-20T20:23:30.934Z,24.10
2018-09-20T20:26:01.664Z,24.00
2018-09-20T20:28:31.122Z,24.00
2018-09-20T20:30:59.528Z,24.00
2018-09-20T20:33:28.887Z,23.90
2018-09-20T20:35:57.137Z,23.90
2018-09-20T20:38:25.741Z,23.80
2018-09-20T20:40:54.260Z,23.80
2018-09-20T20:43:23.299Z,23.70
2018-09-20T20:45:51.521Z,23.70
2018-09-20T20:48:20.088Z,23.60
2018-09-20T20:50:48.697Z,23.50
2018-09-20T20:53:17.357Z,23.50
2018-09-20T20:55:45.953Z,23.40
2018-09-20T20:58:14.199Z,23.30
2018-09-20T21:00:42.758Z,23.30
2018-09-20T21:03:11.052Z,23.20
2018-09-20T21:05:39.667Z,23.20
2018-09-20T21:08:08.354Z,23.20
2018-09-20T21:10:36.916Z,23.10
2018-09-20T21:13:05.470Z,23.10
2018-09-20T21:15:34.494Z,23.00
2018-09-20T21:18:02.804Z,23.00
2018-09-20T21:20:31.053Z,22.90
2018-09-20T21:22:59.292Z,22.90
2018-09-20T21:25:27.889Z,22.80
2018-09-20T21:27:56.473Z,22.80
2018-09-20T21:30:25.093Z,22.80
2018-09-20T21:32:53.384Z,22.70
2018-09-20T21:35:21.629Z,22.70
2018-09-20T21:37:49.861Z,22.50
2018-09-20T21:40:30.563Z,22.50
2018-09-20T21:42:59.220Z,22.50
2018-09-20T21:45:32.380Z,22.50
2018-09-20T21:48:02.434Z,22.40
2018-09-20T21:50:30.681Z,22.40
2018-09-20T21:52:59.537Z,22.40
2018-09-20T21:55:28.377Z,22.40
2018-09-20T21:57:57.825Z,22.40
2018-09-20T22:00:26.526Z,22.40
2018-09-20T22:03:00.235Z,22.30
2018-09-20T22:05:29.202Z,22.30
2018-09-20T22:07:58.783Z,22.30
2018-09-20T22:10:27.313Z,22.20
2018-09-20T22:12:56.797Z,22.20
2018-09-20T22:15:26.746Z,22.20
2018-09-20T22:17:55.946Z,22.10
2018-09-20T22:20:26.876Z,22.10
2018-09-20T22:22:56.660Z,22.10
2018-09-20T22:25:26.153Z,22.10
2018-09-20T22:27:59.796Z,22.10
2018-09-20T22:30:28.645Z,22.00
2018-09-20T22:32:57.149Z,22.00
2018-09-20T22:35:25.693Z,22.00
2018-09-20T22:37:54.582Z,22.00
2018-09-20T22:40:23.113Z,22.00
2018-09-20T22:42:57.620Z,21.90
2018-09-20T22:45:26.161Z,21.90
2018-09-20T22:47:55.649Z,21.80
2018-09-20T22:50:24.496Z,21.80
2018-09-20T22:52:52.974Z,21.80
2018-09-20T22:55:23.231Z,21.80
2018-09-20T22:57:52.125Z,21.80
2018-09-20T23:00:24.540Z,21.70
2018-09-20T23:02:55.225Z,21.80
2018-09-20T23:05:24.626Z,21.70
2018-09-20T23:07:53.881Z,21.70
2018-09-20T23:10:23.066Z,21.60
2018-09-20T23:12:51.960Z,21.50
2018-09-20T23:15:20.796Z,21.50
2018-09-20T23:17:49.352Z,21.50
2018-09-20T23:20:18.264Z,21.40
2018-09-20T23:22:46.753Z,21.40
2018-09-20T23:25:15.738Z,21.40
2018-09-20T23:27:44.225Z,21.40
2018-09-20T23:30:12.821Z,21.30
2018-09-20T23:32:41.364Z,21.20
2018-09-20T23:35:10.585Z,21.20
2018-09-20T23:37:39.070Z,21.20
2018-09-20T23:40:07.573Z,21.20
2018-09-20T23:42:36.414Z,21.10
2018-09-20T23:45:04.924Z,21.00
2018-09-20T23:47:33.441Z,21.00
2018-09-20T23:50:02.271Z,20.90
2018-09-20T23:52:31.111Z,20.90
2018-09-20T23:54:59.913Z,20.90
2018-09-20T23:57:28.736Z,20.80
2018-09-20T23:59:57.577Z,20.90
